GCTS

Tenerife South Airport

Tenerife Island, Spain
METAR GCTS 190700Z 01008KT 9999 SCT035 15/09 Q1023 NOSIG
Observed Flight Rules
Jan-19 @ 07:00 UTC (29 minutes ago) Visual Flight Rules
Wind Visibility Clouds
10° at 8 knots 10,000+ meters
  • Scattered at 3,500' AGL
Temperatures Readings
Current 15°C / 59°F
Dewpoint 9°C / 48°F
Humidity 68%
Altimeter 30.21" Hg
Pressure 1023 hPa
Elevation 72
METAR GCTS 190700Z 01008KT 9999 SCT035 15/09 Q1023 NOSIG
Observed Flight Rules
Jan-19 @ 07:00 UTC
(29 minutes ago)
VFR
Wind Visibility
10° at 8 knots 10,000+ meters
Clouds
  • Scattered at 3,500' AGL
Temperature Dewpoint
15°C / 59°F 9°C / 48°F
Humidity Altimeter Pressure
68% 30.21" Hg 1023 hPa